Time;durP1;ratioP1;P1;durP2;ratioP2;P2;SDS_P1;SDS_P2;PMS_P1;PMS_P2;Temp;Humidity;BMP_temperature;BMP_pressure;BME280_temperature;BME280_humidity;BME280_pressure;Samples;Min_cycle;Max_cycle;Signal;HPM_P1;HPM_P2
2021/10/05 00:01:46;;;;;;;4.45;1.50;;;11.60;99.90;;;;;;5055236;28;20077;-73
2021/10/05 00:04:13;;;;;;;5.47;1.83;;;11.70;99.90;;;;;;5054417;28;20083;-72
2021/10/05 00:06:39;;;;;;;5.95;1.70;;;11.70;99.90;;;;;;5054975;28;20048;-74
2021/10/05 00:09:04;;;;;;;5.70;1.70;;;11.70;99.90;;;;;;5054519;28;20461;-74
2021/10/05 00:11:30;;;;;;;3.92;1.30;;;11.70;99.90;;;;;;5054474;28;20020;-74
2021/10/05 00:13:55;;;;;;;4.90;1.60;;;11.70;99.90;;;;;;5054890;28;20025;-74
2021/10/05 00:16:21;;;;;;;2.40;1.27;;;11.80;99.90;;;;;;5055382;28;20378;-74
2021/10/05 00:18:49;;;;;;;6.30;1.48;;;11.70;99.90;;;;;;5053495;28;20024;-73
2021/10/05 00:21:15;;;;;;;2.45;1.40;;;11.70;99.90;;;;;;5054648;28;20036;-74
2021/10/05 00:23:40;;;;;;;3.03;1.33;;;11.70;99.90;;;;;;5054668;28;20067;-74
2021/10/05 00:26:06;;;;;;;3.38;1.33;;;11.70;99.90;;;;;;5053889;28;20094;-74
2021/10/05 00:28:31;;;;;;;7.13;1.33;;;11.70;99.90;;;;;;5054415;28;20017;-74
2021/10/05 00:30:57;;;;;;;7.50;1.58;;;11.70;99.90;;;;;;5054324;28;20060;-74
2021/10/05 00:33:23;;;;;;;13.55;1.90;;;11.70;99.90;;;;;;5053374;28;20377;-73
2021/10/05 00:35:49;;;;;;;5.00;1.77;;;11.70;99.90;;;;;;5039846;28;20116;-74
2021/10/05 00:38:14;;;;;;;2.00;0.98;;;11.70;99.90;;;;;;5054129;28;20461;-74
2021/10/05 00:40:40;;;;;;;4.13;1.20;;;11.70;99.90;;;;;;5053579;28;20033;-73
2021/10/05 00:43:08;;;;;;;3.35;1.08;;;11.80;99.90;;;;;;5054070;28;20013;-74
2021/10/05 00:45:34;;;;;;;3.65;1.50;;;11.80;99.90;;;;;;5053164;28;20039;-74
2021/10/05 00:48:03;;;;;;;6.95;1.33;;;11.70;99.90;;;;;;5053439;28;20025;-74
2021/10/05 00:50:28;;;;;;;4.57;1.38;;;11.80;99.90;;;;;;5054024;28;20029;-73
2021/10/05 00:52:55;;;;;;;5.68;1.23;;;11.70;99.90;;;;;;5053076;28;20454;-74
2021/10/05 00:55:21;;;;;;;8.55;1.30;;;11.70;99.90;;;;;;5054124;28;20061;-74
2021/10/05 00:57:46;;;;;;;6.82;1.10;;;11.70;99.90;;;;;;5053619;28;20052;-73
2021/10/05 01:00:13;;;;;;;4.88;1.40;;;11.70;99.90;;;;;;5053620;28;20384;-73
2021/10/05 01:02:38;;;;;;;6.10;1.63;;;11.60;99.90;;;;;;5053701;28;20025;-73
2021/10/05 01:05:06;;;;;;;2.67;1.25;;;11.60;99.90;;;;;;5053428;28;20024;-74
2021/10/05 01:07:32;;;;;;;5.57;1.50;;;11.60;99.90;;;;;;5052851;28;20559;-73
2021/10/05 01:09:58;;;;;;;1.58;1.13;;;11.60;99.90;;;;;;5053522;28;20013;-73
2021/10/05 01:12:24;;;;;;;2.38;1.10;;;11.60;99.90;;;;;;5053345;28;20035;-74
2021/10/05 01:14:49;;;;;;;4.85;1.40;;;11.70;99.90;;;;;;5052515;28;20029;-73
2021/10/05 01:17:15;;;;;;;4.57;1.10;;;11.60;99.90;;;;;;5053530;28;20362;-73
2021/10/05 01:19:41;;;;;;;4.45;0.88;;;11.70;99.90;;;;;;5052993;28;20400;-73
2021/10/05 01:22:07;;;;;;;5.90;1.00;;;11.80;99.90;;;;;;5052569;28;20029;-73
2021/10/05 01:24:33;;;;;;;2.83;1.20;;;11.80;99.90;;;;;;5053315;28;20048;-73
2021/10/05 01:26:59;;;;;;;5.18;1.25;;;11.80;99.90;;;;;;5039234;28;20029;-73
2021/10/05 01:29:30;;;;;;;3.10;0.90;;;11.90;99.90;;;;;;5052626;28;20021;-73
2021/10/05 01:31:57;;;;;;;5.47;0.88;;;11.90;99.90;;;;;;5052981;28;20017;-73
2021/10/05 01:34:26;;;;;;;4.28;0.95;;;11.90;99.90;;;;;;5046969;28;20123;-74
2021/10/05 01:36:54;;;;;;;2.28;0.90;;;11.90;99.90;;;;;;5045858;28;20033;-73
2021/10/05 01:39:26;;;;;;;2.60;0.98;;;12.00;99.90;;;;;;5053281;28;20040;-73
2021/10/05 01:41:57;;;;;;;4.05;1.05;;;12.00;99.90;;;;;;5052016;28;20053;-74
2021/10/05 01:44:23;;;;;;;6.05;1.80;;;12.00;99.90;;;;;;5052953;28;20029;-74
2021/10/05 01:46:50;;;;;;;3.00;1.17;;;12.00;99.90;;;;;;5052940;28;20040;-74
2021/10/05 01:49:17;;;;;;;1.67;0.93;;;12.10;99.90;;;;;;5051469;28;20106;-73
2021/10/05 01:51:43;;;;;;;4.40;1.02;;;12.10;99.90;;;;;;5052304;28;20071;-74
2021/10/05 01:54:10;;;;;;;2.28;1.23;;;12.10;99.90;;;;;;5052573;28;20029;-74
2021/10/05 01:56:36;;;;;;;3.60;1.00;;;12.10;99.90;;;;;;5052025;28;20075;-73
2021/10/05 01:59:01;;;;;;;1.80;0.90;;;12.10;99.90;;;;;;5051529;28;20036;-73
2021/10/05 02:01:27;;;;;;;7.72;2.35;;;12.10;99.90;;;;;;5052917;28;20035;-72
2021/10/05 02:03:58;;;;;;;3.10;0.85;;;12.20;99.90;;;;;;5051871;28;20028;-74
2021/10/05 02:06:25;;;;;;;3.05;0.85;;;11.90;99.90;;;;;;5052502;28;20032;-73
2021/10/05 02:08:51;;;;;;;1.85;0.68;;;12.10;99.90;;;;;;5052741;28;20024;-73
2021/10/05 02:11:17;;;;;;;2.58;0.70;;;12.10;99.90;;;;;;5052282;28;20229;-74
2021/10/05 02:13:42;;;;;;;2.55;1.08;;;12.10;99.90;;;;;;5052195;28;20021;-74
2021/10/05 02:16:09;;;;;;;3.15;0.88;;;12.10;99.90;;;;;;5052069;28;20127;-73
2021/10/05 02:18:34;;;;;;;3.10;0.95;;;12.00;99.90;;;;;;5051964;28;20074;-73
2021/10/05 02:21:00;;;;;;;7.75;0.93;;;12.00;99.90;;;;;;5052162;28;20045;-73
2021/10/05 02:23:37;;;;;;;3.88;0.80;;;11.90;99.90;;;;;;5052342;28;20064;-73
2021/10/05 02:26:02;;;;;;;4.03;1.05;;;11.90;99.90;;;;;;5051383;28;20033;-73
2021/10/05 02:28:28;;;;;;;1.70;0.80;;;11.90;99.90;;;;;;5051989;28;20097;-72
2021/10/05 02:30:54;;;;;;;2.85;1.00;;;11.80;99.90;;;;;;5051501;28;20029;-73
2021/10/05 02:33:19;;;;;;;2.97;1.13;;;11.80;99.90;;;;;;5052154;28;20025;-73
2021/10/05 02:35:45;;;;;;;3.70;0.90;;;11.80;99.90;;;;;;5035484;28;20040;-72
2021/10/05 02:38:10;;;;;;;5.88;0.90;;;11.70;99.90;;;;;;5046785;28;20017;-73
2021/10/05 02:40:36;;;;;;;2.35;1.10;;;11.70;99.90;;;;;;5050241;28;20377;-73
2021/10/05 02:43:01;;;;;;;3.30;0.82;;;11.60;99.90;;;;;;5040132;28;20036;-75
2021/10/05 02:45:27;;;;;;;1.65;0.98;;;11.60;99.90;;;;;;5044813;28;20033;-75
2021/10/05 02:47:53;;;;;;;4.20;1.10;;;11.50;99.90;;;;;;5045415;28;20465;-73
2021/10/05 02:50:18;;;;;;;4.97;0.88;;;11.50;99.90;;;;;;5052067;28;20025;-74
2021/10/05 02:52:44;;;;;;;5.38;1.08;;;11.40;99.90;;;;;;5050918;28;20116;-74
2021/10/05 02:55:10;;;;;;;2.83;1.17;;;11.40;99.90;;;;;;5037906;28;20037;-74
2021/10/05 02:57:35;;;;;;;3.67;1.00;;;11.40;99.90;;;;;;5051995;28;20112;-74
2021/10/05 03:10:09;;;;;;;4.53;1.10;;;11.20;99.90;;;;;;5052307;28;20167;-74
2021/10/05 03:12:34;;;;;;;1.40;1.13;;;11.10;99.90;;;;;;5043925;28;20500;-73
2021/10/05 03:15:00;;;;;;;2.83;1.10;;;11.10;99.90;;;;;;5055052;28;20069;-74
2021/10/05 03:17:25;;;;;;;3.28;1.27;;;11.00;99.90;;;;;;5055322;28;20110;-73
2021/10/05 03:19:51;;;;;;;5.53;1.08;;;11.00;99.90;;;;;;5055273;28;20057;-74
2021/10/05 03:22:16;;;;;;;2.60;1.38;;;11.00;99.90;;;;;;5054208;28;20049;-74
2021/10/05 03:24:42;;;;;;;7.10;1.40;;;10.90;99.90;;;;;;5054737;28;20036;-74
2021/10/05 03:27:10;;;;;;;2.72;0.98;;;10.90;99.90;;;;;;5054896;28;20025;-74
2021/10/05 03:29:36;;;;;;;3.38;1.30;;;10.90;99.90;;;;;;5056052;28;20071;-74
2021/10/05 03:32:01;;;;;;;1.85;1.10;;;10.90;99.90;;;;;;5054797;28;20032;-74
2021/10/05 03:34:27;;;;;;;4.72;1.25;;;10.90;99.90;;;;;;5054354;28;20032;-74
2021/10/05 03:36:52;;;;;;;7.38;1.23;;;10.80;99.90;;;;;;5054143;28;20397;-73
2021/10/05 03:39:19;;;;;;;3.42;1.20;;;10.80;99.90;;;;;;5054223;28;20499;-73
2021/10/05 03:41:44;;;;;;;3.45;1.23;;;10.70;99.90;;;;;;5054048;28;20028;-74
2021/10/05 03:44:10;;;;;;;4.53;1.40;;;10.80;99.90;;;;;;5054723;28;20445;-73
2021/10/05 03:46:35;;;;;;;6.45;1.15;;;10.80;99.90;;;;;;5040458;28;20052;-74
2021/10/05 03:49:02;;;;;;;7.95;1.08;;;11.10;99.90;;;;;;5054220;28;20044;-74
2021/10/05 03:51:28;;;;;;;5.57;1.38;;;10.70;99.90;;;;;;5054866;28;20025;-73
2021/10/05 03:53:53;;;;;;;4.00;1.27;;;10.70;99.90;;;;;;5054770;28;20420;-73
2021/10/05 03:56:22;;;;;;;4.07;1.20;;;10.70;99.90;;;;;;5054275;28;20116;-74
2021/10/05 03:58:47;;;;;;;2.40;1.20;;;10.70;99.90;;;;;;5054620;28;20057;-74
2021/10/05 04:01:13;;;;;;;1.00;0.90;;;10.70;99.90;;;;;;5055145;28;20072;-73
2021/10/05 04:03:41;;;;;;;5.70;1.63;;;10.70;99.90;;;;;;5054354;28;20111;-74
2021/10/05 04:06:08;;;;;;;10.32;1.90;;;10.70;99.90;;;;;;5054800;28;20053;-74
2021/10/05 04:08:35;;;;;;;3.50;1.52;;;10.70;99.90;;;;;;5054731;28;20017;-73
2021/10/05 04:11:01;;;;;;;1.83;1.13;;;10.70;99.90;;;;;;5053954;28;20029;-74
2021/10/05 04:13:26;;;;;;;2.90;1.20;;;10.70;99.90;;;;;;5054661;28;20108;-73
2021/10/05 04:15:52;;;;;;;5.25;1.33;;;10.70;99.90;;;;;;5054569;28;20162;-74
2021/10/05 04:18:18;;;;;;;5.95;1.40;;;10.60;99.90;;;;;;5054167;28;20021;-73
2021/10/05 04:20:44;;;;;;;4.30;1.50;;;10.60;99.90;;;;;;5053987;28;20426;-73
2021/10/05 04:23:09;;;;;;;4.00;1.23;;;10.70;99.90;;;;;;5053761;28;20028;-74
2021/10/05 04:25:38;;;;;;;11.27;1.58;;;10.60;99.90;;;;;;5053461;28;20052;-73
2021/10/05 04:28:04;;;;;;;3.70;1.50;;;10.60;99.90;;;;;;5054238;28;20086;-73
2021/10/05 04:30:30;;;;;;;5.88;1.30;;;10.60;99.90;;;;;;5053489;28;20051;-73
2021/10/05 04:32:56;;;;;;;3.05;1.67;;;10.60;99.90;;;;;;5053932;28;20017;-74
2021/10/05 04:35:21;;;;;;;4.85;2.40;;;10.60;99.90;;;;;;5054167;28;20037;-74
2021/10/05 04:37:47;;;;;;;7.65;2.22;;;10.60;99.90;;;;;;5053278;28;20127;-74
2021/10/05 04:40:12;;;;;;;6.25;1.70;;;10.60;99.90;;;;;;5053889;28;20465;-74
2021/10/05 04:42:38;;;;;;;2.97;1.38;;;10.60;99.90;;;;;;5054313;28;20024;-74
2021/10/05 04:45:04;;;;;;;3.72;1.40;;;10.70;99.90;;;;;;5047471;28;20466;-74
2021/10/05 04:47:30;;;;;;;3.28;1.40;;;10.70;99.90;;;;;;5045859;28;20029;-74
2021/10/05 04:49:55;;;;;;;5.50;1.48;;;10.60;99.90;;;;;;5053638;28;20023;-74
2021/10/05 04:52:21;;;;;;;3.75;1.40;;;10.60;99.90;;;;;;5053759;28;20466;-75
2021/10/05 04:54:46;;;;;;;4.43;1.70;;;10.70;99.90;;;;;;5053581;28;20384;-74
2021/10/05 04:57:12;;;;;;;2.42;1.40;;;10.60;99.90;;;;;;5054144;28;20025;-74
2021/10/05 04:59:41;;;;;;;5.30;1.80;;;10.60;99.90;;;;;;5053506;28;20032;-73
2021/10/05 05:02:06;;;;;;;4.65;1.20;;;10.60;99.90;;;;;;5053554;28;20023;-74
2021/10/05 05:04:34;;;;;;;5.32;1.58;;;10.60;99.90;;;;;;5053594;28;20026;-74
2021/10/05 05:07:00;;;;;;;3.70;1.30;;;10.50;99.90;;;;;;5053103;28;20067;-75
2021/10/05 05:09:25;;;;;;;4.45;1.63;;;10.60;99.90;;;;;;5054269;28;20033;-74
2021/10/05 05:11:51;;;;;;;5.88;1.42;;;10.50;99.90;;;;;;5053645;28;20028;-73
2021/10/05 05:14:18;;;;;;;3.33;1.40;;;10.50;99.90;;;;;;5053368;28;20060;-73
2021/10/05 05:16:44;;;;;;;9.63;1.52;;;10.50;99.90;;;;;;5052999;28;20037;-74
2021/10/05 05:19:09;;;;;;;3.60;1.52;;;10.50;99.90;;;;;;5053323;28;20053;-74
2021/10/05 05:21:36;;;;;;;4.95;1.80;;;10.50;99.90;;;;;;5052748;28;20029;-73
2021/10/05 05:24:02;;;;;;;3.22;1.45;;;10.50;99.90;;;;;;5052849;28;20025;-73
2021/10/05 05:26:28;;;;;;;3.42;1.65;;;10.50;99.90;;;;;;5053727;28;20028;-74
2021/10/05 05:28:54;;;;;;;3.38;2.00;;;10.50;99.90;;;;;;5052319;28;20043;-73
2021/10/05 05:31:20;;;;;;;5.22;1.70;;;10.50;99.90;;;;;;5052044;28;20021;-74
2021/10/05 05:33:48;;;;;;;3.53;1.73;;;10.50;99.90;;;;;;5036496;28;20422;-74
2021/10/05 05:36:13;;;;;;;3.13;1.42;;;10.50;99.90;;;;;;5032070;28;20110;-74
2021/10/05 05:38:39;;;;;;;5.65;1.90;;;10.40;99.90;;;;;;5032590;28;20045;-74
2021/10/05 05:41:05;;;;;;;5.53;1.60;;;10.40;99.90;;;;;;5031705;28;20028;-74
2021/10/05 05:43:31;;;;;;;9.85;3.10;;;10.40;99.90;;;;;;5032342;28;20021;-74
2021/10/05 05:45:56;;;;;;;3.92;1.40;;;10.40;99.90;;;;;;5031544;28;20017;-74
2021/10/05 05:48:22;;;;;;;7.20;1.50;;;10.40;99.90;;;;;;5031743;28;20072;-74
2021/10/05 05:50:48;;;;;;;5.55;1.60;;;10.30;99.90;;;;;;5031492;28;20034;-74
2021/10/05 05:53:13;;;;;;;3.63;1.85;;;10.30;99.90;;;;;;5031963;28;20017;-73
2021/10/05 05:55:39;;;;;;;6.78;1.58;;;10.70;99.90;;;;;;5031731;28;20159;-73
2021/10/05 05:58:12;;;;;;;4.07;1.67;;;10.30;99.90;;;;;;5034369;28;20017;-73
2021/10/05 06:00:39;;;;;;;3.30;1.80;;;10.20;99.90;;;;;;5034961;28;20104;-75
2021/10/05 06:03:04;;;;;;;14.63;1.55;;;10.20;99.90;;;;;;5031210;28;20026;-74
2021/10/05 06:05:31;;;;;;;7.78;1.60;;;10.20;99.90;;;;;;5048384;28;20028;-74
2021/10/05 06:08:02;;;;;;;4.93;1.40;;;10.20;99.90;;;;;;5050435;28;20037;-73
2021/10/05 06:10:27;;;;;;;2.90;1.33;;;10.20;99.90;;;;;;5049080;28;20044;-73
2021/10/05 06:12:53;;;;;;;5.88;1.75;;;10.20;99.90;;;;;;5051579;28;20017;-73
2021/10/05 06:15:20;;;;;;;3.95;1.60;;;10.20;99.90;;;;;;5049185;28;20068;-74
2021/10/05 06:17:47;;;;;;;4.05;1.60;;;10.20;99.90;;;;;;5048829;28;20445;-74
2021/10/05 06:20:15;;;;;;;6.57;1.40;;;10.30;99.90;;;;;;5048404;28;20128;-73
2021/10/05 06:22:45;;;;;;;1.42;1.30;;;10.30;99.90;;;;;;5050018;28;20103;-73
2021/10/05 06:25:14;;;;;;;5.57;2.33;;;10.30;99.90;;;;;;5050574;28;20052;-73
2021/10/05 06:27:40;;;;;;;2.72;1.40;;;10.30;99.90;;;;;;5051421;28;20035;-76
2021/10/05 06:30:07;;;;;;;2.70;1.10;;;10.40;99.90;;;;;;5043646;28;20084;-75
2021/10/05 06:32:34;;;;;;;3.90;1.33;;;10.40;99.90;;;;;;5047159;28;20537;-76
2021/10/05 06:35:00;;;;;;;1.67;1.20;;;10.50;99.90;;;;;;5040907;28;20021;-76
2021/10/05 06:37:26;;;;;;;4.15;1.35;;;10.60;99.90;;;;;;5047569;28;20040;-75
2021/10/05 06:39:51;;;;;;;3.22;1.10;;;10.70;99.90;;;;;;5050420;28;20017;-75
2021/10/05 06:42:17;;;;;;;2.17;1.33;;;10.70;99.90;;;;;;5052284;28;20051;-75
2021/10/05 06:44:42;;;;;;;4.97;1.30;;;10.80;99.90;;;;;;5045565;28;20100;-75
2021/10/05 06:47:09;;;;;;;5.55;1.58;;;10.80;99.90;;;;;;5045623;28;20104;-76
2021/10/05 06:49:34;;;;;;;3.17;1.45;;;10.90;99.90;;;;;;5045862;28;20141;-76
2021/10/05 06:52:01;;;;;;;4.85;1.90;;;10.90;99.90;;;;;;5047709;28;20445;-77
2021/10/05 06:54:27;;;;;;;2.03;1.35;;;11.00;99.90;;;;;;5040108;28;20021;-76
2021/10/05 06:56:53;;;;;;;3.40;1.40;;;11.10;99.90;;;;;;5031655;28;20033;-75
2021/10/05 06:59:18;;;;;;;3.72;1.40;;;11.10;99.90;;;;;;5031616;28;20029;-80
2021/10/05 07:01:44;;;;;;;1.55;1.25;;;11.10;99.90;;;;;;5031900;28;20444;-78
2021/10/05 07:04:10;;;;;;;7.15;1.50;;;11.20;99.90;;;;;;5032542;28;20031;-73
2021/10/05 07:06:37;;;;;;;6.03;1.85;;;11.20;99.90;;;;;;5049743;28;20048;-75
2021/10/05 07:09:03;;;;;;;2.70;1.38;;;11.30;99.90;;;;;;5052145;28;20026;-76
2021/10/05 07:11:29;;;;;;;4.00;1.20;;;11.40;99.90;;;;;;5051405;28;20029;-76
2021/10/05 07:13:55;;;;;;;1.75;1.30;;;11.50;99.90;;;;;;5050754;28;20142;-76
2021/10/05 07:16:24;;;;;;;3.63;1.45;;;11.50;99.90;;;;;;5051573;28;20037;-78
2021/10/05 07:18:49;;;;;;;2.97;1.65;;;11.60;99.90;;;;;;5051210;28;20078;-75
2021/10/05 07:21:16;;;;;;;5.90;1.80;;;11.60;99.90;;;;;;5050905;28;20029;-75
2021/10/05 07:23:42;;;;;;;5.38;1.50;;;11.70;99.90;;;;;;5051271;28;20094;-77
2021/10/05 07:26:07;;;;;;;4.20;1.83;;;11.80;99.90;;;;;;5051840;28;20420;-77
2021/10/05 07:28:33;;;;;;;4.05;1.50;;;11.80;99.90;;;;;;5044469;28;20033;-76
2021/10/05 07:30:59;;;;;;;5.75;1.38;;;11.90;99.90;;;;;;5045269;28;20017;-78
2021/10/05 07:33:26;;;;;;;1.65;1.33;;;12.00;99.90;;;;;;5044554;28;20031;-78
2021/10/05 07:35:51;;;;;;;6.32;1.60;;;12.00;99.90;;;;;;5042169;28;20032;-78
2021/10/05 07:38:17;;;;;;;2.17;1.15;;;12.10;99.90;;;;;;5045963;28;20017;-78
2021/10/05 07:40:43;;;;;;;3.08;1.35;;;12.20;99.90;;;;;;5044838;28;20028;-78
2021/10/05 07:43:08;;;;;;;4.68;1.20;;;12.20;99.90;;;;;;5044882;28;20480;-77
2021/10/05 07:45:36;;;;;;;2.95;1.30;;;12.30;99.90;;;;;;5044097;28;20021;-77
2021/10/05 07:48:03;;;;;;;2.03;1.15;;;12.40;99.90;;;;;;5041296;28;20371;-77
2021/10/05 07:50:28;;;;;;;6.28;1.30;;;12.40;99.90;;;;;;5047062;28;20025;-78
2021/10/05 07:52:54;;;;;;;2.42;1.30;;;12.50;99.90;;;;;;5049467;28;20170;-77
2021/10/05 07:55:19;;;;;;;6.57;1.40;;;12.60;99.90;;;;;;5048191;28;20033;-77
2021/10/05 07:57:45;;;;;;;6.40;1.83;;;12.60;99.90;;;;;;5051068;28;20017;-78
2021/10/05 08:00:11;;;;;;;3.33;1.33;;;12.70;99.90;;;;;;5049003;28;20025;-78
2021/10/05 08:02:38;;;;;;;6.30;1.70;;;12.80;99.90;;;;;;5054397;28;20013;-78
2021/10/05 08:05:04;;;;;;;9.85;1.40;;;12.90;99.90;;;;;;5050838;28;20025;-78
2021/10/05 08:07:30;;;;;;;3.92;1.10;;;12.90;99.90;;;;;;5053433;28;20048;-77
2021/10/05 08:09:57;;;;;;;4.03;1.42;;;13.00;99.90;;;;;;5049150;28;20060;-78
2021/10/05 08:12:24;;;;;;;2.75;1.10;;;13.00;99.90;;;;;;5050949;28;20025;-77
2021/10/05 08:14:51;;;;;;;3.15;1.42;;;13.10;99.90;;;;;;5052006;28;20397;-77
2021/10/05 08:17:18;;;;;;;2.55;1.13;;;13.20;99.90;;;;;;5047410;28;20029;-77
2021/10/05 08:19:44;;;;;;;4.00;1.35;;;13.20;99.90;;;;;;5049704;28;20045;-79
2021/10/05 08:22:10;;;;;;;5.40;1.35;;;13.30;99.90;;;;;;5050697;28;20033;-77
2021/10/05 08:24:36;;;;;;;5.07;1.38;;;13.40;99.90;;;;;;5049402;28;20017;-79
2021/10/05 08:27:05;;;;;;;3.72;1.35;;;13.30;99.90;;;;;;5046166;28;20033;-79
2021/10/05 08:29:34;;;;;;;3.50;1.00;;;13.40;99.90;;;;;;5051223;28;20029;-78
2021/10/05 08:32:00;;;;;;;3.58;1.20;;;13.50;99.90;;;;;;5049700;28;20029;-78
2021/10/05 08:34:25;;;;;;;4.95;1.30;;;13.60;99.90;;;;;;5047547;28;20013;-78
2021/10/05 08:36:51;;;;;;;3.83;1.30;;;13.60;99.90;;;;;;5048515;28;20025;-75
2021/10/05 08:39:17;;;;;;;3.80;1.10;;;13.70;99.90;;;;;;5046537;28;20558;-76
2021/10/05 08:41:45;;;;;;;6.78;1.25;;;13.70;99.90;;;;;;5045082;28;20534;-76
2021/10/05 08:44:11;;;;;;;2.78;1.10;;;13.80;99.90;;;;;;5047576;28;20025;-76
2021/10/05 08:46:37;;;;;;;3.85;1.20;;;13.90;99.90;;;;;;5051391;28;20036;-76
2021/10/05 08:49:04;;;;;;;4.57;1.17;;;14.00;99.90;;;;;;5052054;28;20465;-77
2021/10/05 08:51:30;;;;;;;5.40;1.10;;;14.00;99.90;;;;;;5051866;28;20466;-76
2021/10/05 08:53:55;;;;;;;2.78;1.02;;;14.10;99.90;;;;;;5051971;28;20104;-76
2021/10/05 08:56:21;;;;;;;7.28;1.00;;;14.20;99.90;;;;;;5051723;28;20066;-76
2021/10/05 08:58:46;;;;;;;3.00;0.93;;;14.30;99.90;;;;;;5051365;28;20437;-77
2021/10/05 09:01:16;;;;;;;3.80;1.25;;;14.30;99.90;;;;;;5051997;28;20033;-76
2021/10/05 09:03:52;;;;;;;3.42;1.17;;;14.50;99.90;;;;;;5052564;28;20020;-75
2021/10/05 09:06:19;;;;;;;5.40;1.20;;;14.70;99.90;;;;;;5052601;28;20037;-76
2021/10/05 09:08:46;;;;;;;4.90;1.35;;;14.80;99.90;;;;;;5051633;28;20032;-76
2021/10/05 09:11:13;;;;;;;3.58;0.90;;;14.90;99.90;;;;;;5046974;28;20021;-77
2021/10/05 09:13:46;;;;;;;5.10;1.10;;;15.10;99.90;;;;;;5047219;28;20029;-77
2021/10/05 09:16:26;;;;;;;4.20;1.00;;;15.30;99.90;;;;;;5049970;28;20033;-76
2021/10/05 09:18:52;;;;;;;3.45;1.08;;;15.50;99.90;;;;;;5046686;28;20028;-76
2021/10/05 09:21:18;;;;;;;3.78;0.80;;;15.60;99.90;;;;;;5050038;28;20047;-77
2021/10/05 09:23:55;;;;;;;4.38;0.90;;;15.80;99.90;;;;;;5049155;28;20025;-77
2021/10/05 09:26:41;;;;;;;5.45;1.00;;;15.90;99.90;;;;;;5049430;28;20031;-76
2021/10/05 09:29:13;;;;;;;3.72;1.00;;;16.00;99.90;;;;;;5047629;28;20021;-76
2021/10/05 09:31:46;;;;;;;2.80;0.95;;;16.00;99.90;;;;;;5043313;28;20079;-76
2021/10/05 09:34:11;;;;;;;5.10;0.90;;;16.10;99.90;;;;;;5048447;28;20037;-75
2021/10/05 09:36:37;;;;;;;3.33;0.90;;;16.10;99.90;;;;;;5047205;28;20032;-77
2021/10/05 09:39:02;;;;;;;4.75;0.82;;;16.20;99.90;;;;;;5048476;28;20068;-76
2021/10/05 09:41:28;;;;;;;7.45;0.77;;;16.20;99.90;;;;;;5046756;28;20481;-76
2021/10/05 09:44:03;;;;;;;5.05;0.90;;;16.20;99.90;;;;;;5048522;28;20032;-77
2021/10/05 09:46:30;;;;;;;4.35;0.82;;;16.30;99.90;;;;;;5046708;28;20370;-76
2021/10/05 09:49:01;;;;;;;1.48;0.90;;;16.40;99.90;;;;;;5046713;28;20040;-76
2021/10/05 09:51:27;;;;;;;3.53;0.95;;;16.40;99.90;;;;;;5050420;28;20111;-76
2021/10/05 09:53:54;;;;;;;8.38;0.95;;;16.40;99.90;;;;;;5054919;28;20057;-77
2021/10/05 09:56:21;;;;;;;2.00;1.00;;;16.40;99.90;;;;;;5053097;28;20037;-76
2021/10/05 09:58:49;;;;;;;4.05;0.90;;;16.40;99.90;;;;;;5046279;28;20017;-76
2021/10/05 10:01:15;;;;;;;3.65;1.00;;;16.50;99.90;;;;;;5046095;28;20053;-77
2021/10/05 10:03:42;;;;;;;2.95;1.23;;;16.50;99.90;;;;;;5042511;28;20100;-76
2021/10/05 10:06:07;;;;;;;3.75;0.90;;;16.50;99.90;;;;;;5044580;28;20060;-76
2021/10/05 10:08:34;;;;;;;2.40;0.82;;;16.60;99.90;;;;;;5044270;28;20477;-76
2021/10/05 10:11:00;;;;;;;4.47;1.33;;;16.60;99.90;;;;;;5048133;28;20025;-76
2021/10/05 10:13:26;;;;;;;6.55;1.10;;;16.70;99.90;;;;;;5046164;28;20094;-77
2021/10/05 10:15:56;;;;;;;4.20;0.98;;;16.70;99.90;;;;;;5049621;28;20041;-77
2021/10/05 10:18:22;;;;;;;3.80;0.88;;;16.70;99.90;;;;;;5051217;28;20156;-77
2021/10/05 10:21:06;;;;;;;4.05;1.35;;;16.80;99.90;;;;;;5047442;28;20131;-76
2021/10/05 10:23:33;;;;;;;1.83;1.13;;;16.80;99.90;;;;;;5047803;28;20029;-77
2021/10/05 10:26:03;;;;;;;4.82;1.00;;;16.80;99.90;;;;;;5048923;28;20025;-76
2021/10/05 10:28:35;;;;;;;2.80;0.95;;;16.70;99.90;;;;;;5045643;28;20374;-76
2021/10/05 10:31:07;;;;;;;4.90;1.25;;;16.70;99.90;;;;;;5042910;28;20032;-76
2021/10/05 10:33:52;;;;;;;3.65;0.95;;;16.60;99.90;;;;;;5048202;28;20511;-77
2021/10/05 10:36:30;;;;;;;4.93;1.52;;;16.40;99.90;;;;;;5044452;28;20032;-77
2021/10/05 10:39:08;;;;;;;3.42;1.00;;;16.40;99.90;;;;;;5048145;28;20017;-76
2021/10/05 10:41:35;;;;;;;4.53;1.27;;;16.40;99.90;;;;;;5046918;28;20024;-76
2021/10/05 10:44:05;;;;;;;4.10;1.17;;;16.40;99.90;;;;;;5046406;28;20044;-76
2021/10/05 10:46:38;;;;;;;4.25;1.00;;;16.40;99.90;;;;;;5048285;28;20078;-77
2021/10/05 10:49:15;;;;;;;6.85;1.10;;;16.40;99.90;;;;;;5048645;28;20104;-77
2021/10/05 10:51:43;;;;;;;4.32;1.17;;;16.50;99.90;;;;;;5044182;28;20021;-77
2021/10/05 10:54:19;;;;;;;3.70;1.05;;;16.60;99.90;;;;;;5048771;28;20064;-77
2021/10/05 10:56:48;;;;;;;1.73;1.15;;;16.60;99.90;;;;;;5046356;28;20045;-77
2021/10/05 10:59:18;;;;;;;3.00;1.00;;;16.70;99.90;;;;;;5048330;28;20036;-79
2021/10/05 11:01:46;;;;;;;5.60;1.00;;;16.70;99.90;;;;;;5046651;28;20037;-79
2021/10/05 11:04:14;;;;;;;1.90;0.82;;;16.60;99.90;;;;;;5047842;28;20063;-79
2021/10/05 11:06:44;;;;;;;2.55;0.90;;;16.50;99.90;;;;;;5046297;28;20108;-79
2021/10/05 11:09:10;;;;;;;4.87;1.00;;;16.50;99.90;;;;;;5048442;28;20040;-78
2021/10/05 11:11:38;;;;;;;22.20;1.88;;;16.40;99.90;;;;;;5048265;28;20021;-78
2021/10/05 11:14:08;;;;;;;2.97;1.10;;;16.30;99.90;;;;;;5045486;28;20024;-78
2021/10/05 11:16:35;;;;;;;;;;;16.20;99.90;;;;;;5048902;28;20033;-77
2021/10/05 11:19:11;;;;;;;6.00;1.02;;;16.10;99.90;;;;;;5043205;28;19905;-78
2021/10/05 11:21:41;;;;;;;5.57;1.50;;;16.10;99.90;;;;;;5042163;28;20104;-77
2021/10/05 11:24:07;;;;;;;2.92;1.20;;;16.00;99.90;;;;;;5046633;28;20018;-77
2021/10/05 11:26:37;;;;;;;4.82;0.95;;;15.90;99.90;;;;;;5045891;28;20032;-77
2021/10/05 11:29:05;;;;;;;5.38;1.08;;;16.00;99.90;;;;;;5046667;28;20512;-77
2021/10/05 11:31:42;;;;;;;4.70;1.27;;;16.00;99.90;;;;;;5048697;28;20036;-77
2021/10/05 11:34:07;;;;;;;3.85;1.13;;;16.00;99.90;;;;;;5047109;28;20044;-78
2021/10/05 11:36:33;;;;;;;2.20;0.90;;;16.00;99.90;;;;;;5046754;28;20552;-77
2021/10/05 11:38:59;;;;;;;4.00;1.05;;;15.90;99.90;;;;;;5046798;28;20527;-79
2021/10/05 11:41:40;;;;;;;3.78;0.88;;;15.80;99.90;;;;;;5049126;28;20091;-78
2021/10/05 11:44:15;;;;;;;3.40;1.40;;;15.80;99.90;;;;;;5049476;28;20436;-78
2021/10/05 11:46:55;;;;;;;4.40;1.00;;;15.70;99.90;;;;;;5049120;28;20047;-78
2021/10/05 11:49:22;;;;;;;4.32;1.20;;;15.70;99.90;;;;;;5053044;28;20079;-78
2021/10/05 11:51:52;;;;;;;5.75;1.08;;;15.60;99.90;;;;;;5053153;28;20064;-77
2021/10/05 11:54:23;;;;;;;2.00;1.02;;;15.60;99.90;;;;;;5053464;28;20902;-77
2021/10/05 11:56:48;;;;;;;5.82;1.27;;;15.50;99.90;;;;;;5051217;28;20493;-77
2021/10/05 11:59:32;;;;;;;1.92;1.25;;;15.50;99.90;;;;;;5039273;28;20035;-77
2021/10/05 12:02:10;;;;;;;4.38;1.20;;;15.50;99.90;;;;;;5039353;28;20026;-79
2021/10/05 12:04:39;;;;;;;5.60;1.80;;;15.30;99.90;;;;;;5039144;28;20040;-77
2021/10/05 12:07:07;;;;;;;11.82;1.35;;;15.30;99.90;;;;;;5039436;28;20052;-77
2021/10/05 12:09:33;;;;;;;5.25;1.17;;;15.20;99.90;;;;;;5044853;28;20075;-77
2021/10/05 12:12:17;;;;;;;2.03;1.10;;;15.10;99.90;;;;;;5048935;28;20037;-77
2021/10/05 12:14:52;;;;;;;3.33;1.08;;;15.10;99.90;;;;;;5048788;28;20025;-77
2021/10/05 12:17:18;;;;;;;2.90;1.50;;;15.00;99.90;;;;;;5042855;28;20061;-76
2021/10/05 12:19:50;;;;;;;4.55;0.90;;;14.90;99.90;;;;;;5044978;28;20055;-77
2021/10/05 12:22:19;;;;;;;4.00;0.90;;;14.80;99.90;;;;;;5047327;28;20052;-78
2021/10/05 12:24:48;;;;;;;2.28;1.15;;;14.80;99.90;;;;;;5046164;28;20031;-77
2021/10/05 12:27:18;;;;;;;7.63;1.10;;;14.70;99.90;;;;;;5050557;28;20079;-79
2021/10/05 12:30:00;;;;;;;5.45;1.40;;;14.70;99.90;;;;;;5033367;28;20124;-78
2021/10/05 12:32:53;;;;;;;7.18;1.33;;;14.70;99.90;;;;;;5034268;28;20021;-77
2021/10/05 12:35:35;;;;;;;3.72;1.05;;;14.70;99.90;;;;;;5030594;28;20034;-76
2021/10/05 12:38:22;;;;;;;2.03;1.17;;;14.60;99.90;;;;;;5033254;28;20048;-77
2021/10/05 12:40:51;;;;;;;1.30;1.20;;;14.60;99.90;;;;;;5033668;28;20072;-76
2021/10/05 12:43:20;;;;;;;2.20;1.33;;;14.60;99.90;;;;;;5032796;28;20112;-77
2021/10/05 12:45:56;;;;;;;2.40;1.20;;;14.60;99.90;;;;;;5033659;28;20026;-77
2021/10/05 12:48:33;;;;;;;4.95;1.52;;;14.60;99.90;;;;;;5052688;28;20075;-77
2021/10/05 12:50:59;;;;;;;8.65;1.65;;;14.60;99.90;;;;;;5053094;28;20460;-77
2021/10/05 12:53:25;;;;;;;8.98;1.20;;;14.60;99.90;;;;;;5055284;28;20130;-77
2021/10/05 12:55:50;;;;;;;1.13;1.00;;;14.60;99.90;;;;;;5053631;28;20515;-77
2021/10/05 12:58:16;;;;;;;3.00;1.00;;;14.70;99.90;;;;;;5053651;28;20025;-77
2021/10/05 13:00:43;;;;;;;6.15;1.55;;;14.70;99.90;;;;;;5053586;28;20032;-78